createdAt,value
2023-02-09T00:02:05.646Z,3.9
2023-02-09T00:04:53.034Z,3.2
2023-02-09T00:07:40.525Z,2.3
2023-02-09T00:10:27.894Z,1.5
2023-02-09T00:13:15.271Z,1.9
2023-02-09T00:16:10.504Z,3.2
2023-02-09T00:18:58.296Z,4
2023-02-09T00:21:45.603Z,3.3
2023-02-09T00:24:33.371Z,2.3
2023-02-09T00:27:21.444Z,1.5
2023-02-09T00:30:08.889Z,1.4
2023-02-09T00:32:57.409Z,2.6
2023-02-09T00:35:44.966Z,3.7
2023-02-09T00:38:33.156Z,3.3
2023-02-09T00:41:21.739Z,2.3
2023-02-09T00:44:50.435Z,1.2
2023-02-09T00:47:37.767Z,1.3
2023-02-09T00:50:25.971Z,2.6
2023-02-09T00:53:14.224Z,3.8
2023-02-09T00:56:01.628Z,3.2
2023-02-09T00:58:49.254Z,2.2
2023-02-09T01:01:36.568Z,1.3
2023-02-09T01:04:24.390Z,0.6
2023-02-09T01:07:12.070Z,1
2023-02-09T01:09:59.331Z,2.4
2023-02-09T01:12:47.630Z,3.4
2023-02-09T01:15:35.021Z,2.9
2023-02-09T01:18:25.034Z,1.8
2023-02-09T01:21:12.375Z,1
2023-02-09T01:24:02.921Z,1.2
2023-02-09T01:26:50.802Z,2.5
2023-02-09T01:29:38.131Z,3.3
2023-02-09T01:32:25.510Z,2.5
2023-02-09T01:35:12.956Z,1.6
2023-02-09T01:38:00.246Z,0.8
2023-02-09T01:40:48.151Z,1.1
2023-02-09T01:43:36.956Z,2.4
2023-02-09T01:46:44.226Z,3.3
2023-02-09T01:49:32.652Z,2.5
2023-02-09T01:52:20.063Z,1.4
2023-02-09T01:55:11.904Z,0.6
2023-02-09T01:58:03.239Z,0.8
2023-02-09T02:00:55.223Z,2.2
2023-02-09T02:03:42.736Z,3
2023-02-09T02:06:31.745Z,2.2
2023-02-09T02:09:19.639Z,1.3
2023-02-09T02:12:07.451Z,0.4
2023-02-09T02:14:54.882Z,0.7
2023-02-09T02:17:42.187Z,1.9
2023-02-09T02:21:08.211Z,2.7
2023-02-09T02:24:16.466Z,1.8
2023-02-09T02:27:45.161Z,0.7
2023-02-09T02:30:50.655Z,0.5
2023-02-09T02:33:59.768Z,1.8
2023-02-09T02:36:53.763Z,2.7
2023-02-09T02:39:54.234Z,1.9
2023-02-09T02:42:52.173Z,0.8
2023-02-09T02:45:47.319Z,0
2023-02-09T02:48:41.721Z,0.5
2023-02-09T02:51:35.321Z,1.9
2023-02-09T02:54:26.105Z,2.3
2023-02-09T02:57:17.884Z,1.5
2023-02-09T03:00:10.344Z,0.6
2023-02-09T03:03:00.189Z,-0.1
2023-02-09T03:05:53.884Z,0.5
2023-02-09T03:08:42.168Z,1.7
2023-02-09T03:11:35.599Z,2.6
2023-02-09T03:14:27.345Z,1.8
2023-02-09T03:17:26.787Z,0.8
2023-02-09T03:20:26.744Z,-0.1
2023-02-09T03:23:23.256Z,0.2
2023-02-09T03:26:17.815Z,1.5
2023-02-09T03:29:09.765Z,2.4
2023-02-09T03:31:58.921Z,2.1
2023-02-09T03:34:46.400Z,1.2
2023-02-09T03:37:34.746Z,0.3
2023-02-09T03:40:21.994Z,0
2023-02-09T03:43:09.459Z,1.1
2023-02-09T03:45:56.939Z,2.3
2023-02-09T03:48:44.470Z,2.4
2023-02-09T03:51:32.910Z,1.2
2023-02-09T03:54:20.435Z,0.4
2023-02-09T03:57:07.957Z,0
2023-02-09T03:59:55.699Z,0.9
2023-02-09T04:02:43.463Z,2.4
2023-02-09T04:05:31.961Z,2.2
2023-02-09T04:08:19.234Z,1.3
2023-02-09T04:11:06.581Z,0.5
2023-02-09T04:13:54.006Z,-0.1
2023-02-09T04:16:41.268Z,0.8
2023-02-09T04:19:28.981Z,2.1
2023-02-09T04:22:16.315Z,2.3
2023-02-09T04:25:03.683Z,1.5
2023-02-09T04:27:51.881Z,0.5
2023-02-09T04:30:39.795Z,-0.2
2023-02-09T04:33:28.016Z,0.4
2023-02-09T04:36:15.487Z,1.7
2023-02-09T04:39:03.049Z,2.5
2023-02-09T04:41:50.310Z,1.7
2023-02-09T04:44:37.981Z,0.7
2023-02-09T04:47:25.243Z,-0.1
2023-02-09T04:50:12.739Z,-0.2
2023-02-09T04:53:00.640Z,1.2
2023-02-09T04:55:48.154Z,2.5
2023-02-09T04:58:37.215Z,2.1
2023-02-09T05:01:56.195Z,0.8
2023-02-09T05:04:43.972Z,0
2023-02-09T05:07:32.455Z,-0.4
2023-02-09T05:10:20.043Z,0.7
2023-02-09T05:13:07.498Z,1.9
2023-02-09T05:15:54.748Z,2.1
2023-02-09T05:18:42.183Z,1.1
2023-02-09T05:21:30.773Z,0.2
2023-02-09T05:24:18.148Z,-0.5
2023-02-09T05:27:05.493Z,0.3
2023-02-09T05:29:52.864Z,1.6
2023-02-09T05:32:40.255Z,2
2023-02-09T05:35:27.543Z,1
2023-02-09T05:38:15.076Z,0.1
2023-02-09T05:41:02.719Z,-0.5
2023-02-09T05:43:50.980Z,0.4
2023-02-09T05:46:38.809Z,1.6
2023-02-09T05:49:26.153Z,2.2
2023-02-09T05:52:13.548Z,1.4
2023-02-09T05:55:01.446Z,0.4
2023-02-09T05:57:49.312Z,-0.4
2023-02-09T06:00:36.837Z,-0.2
2023-02-09T06:03:24.408Z,1.1
2023-02-09T06:06:11.867Z,2.2
2023-02-09T06:08:59.225Z,1.7
2023-02-09T06:11:46.576Z,0.7
2023-02-09T06:14:33.926Z,-0.2
2023-02-09T06:17:21.424Z,-0.4
2023-02-09T06:20:08.929Z,0.8
2023-02-09T06:22:57.330Z,2
2023-02-09T06:25:44.821Z,1.6
2023-02-09T06:28:32.778Z,0.7
2023-02-09T06:31:20.620Z,-0.2
2023-02-09T06:34:07.983Z,-0.7
2023-02-09T06:36:55.580Z,0.2
2023-02-09T06:39:43.287Z,1.6
2023-02-09T06:42:31.704Z,2.2
2023-02-09T06:45:28.407Z,1.4
2023-02-09T06:48:16.025Z,0.4
2023-02-09T06:51:03.573Z,-0.3
2023-02-09T06:53:53.645Z,0
2023-02-09T06:56:41.353Z,1.4
2023-02-09T06:59:29.081Z,2.3
2023-02-09T07:02:16.469Z,1.5
2023-02-09T07:05:03.926Z,0.6
2023-02-09T07:07:51.735Z,-0.2
2023-02-09T07:10:40.749Z,-0.1
2023-02-09T07:13:28.234Z,1.3
2023-02-09T07:16:16.593Z,2.4
2023-02-09T07:19:04.016Z,1.9
2023-02-09T07:21:51.444Z,1
2023-02-09T07:24:38.845Z,0.2
2023-02-09T07:27:26.331Z,-0.2
2023-02-09T07:30:13.649Z,1
2023-02-09T07:33:01.904Z,2.4
2023-02-09T07:35:49.350Z,2.2
2023-02-09T07:38:36.801Z,1.4
2023-02-09T07:41:24.623Z,0.6
2023-02-09T07:44:13.160Z,-0.1
2023-02-09T07:47:00.514Z,0.3
2023-02-09T07:49:48.419Z,1.8
2023-02-09T07:52:35.874Z,2.7
2023-02-09T07:55:23.235Z,2.1
2023-02-09T07:58:10.929Z,1.3
2023-02-09T08:00:59.979Z,0.6
2023-02-09T08:03:50.940Z,0
2023-02-09T08:06:42.494Z,0.5
2023-02-09T08:09:32.224Z,2.1
2023-02-09T08:12:19.527Z,2.7
2023-02-09T08:15:44.841Z,2
2023-02-09T08:18:37.212Z,1.4
2023-02-09T08:21:27.635Z,0.8
2023-02-09T08:24:18.708Z,0.3
2023-02-09T08:27:05.229Z,1.1
2023-02-09T08:29:52.639Z,2.9
2023-02-09T08:32:40.361Z,2.9
2023-02-09T08:35:30.319Z,2.2
2023-02-09T08:38:18.253Z,1.5
2023-02-09T08:41:05.614Z,1
2023-02-09T08:43:55.520Z,1.7
2023-02-09T08:46:43.181Z,3.1
2023-02-09T08:49:31.765Z,3
2023-02-09T08:52:19.263Z,2.5
2023-02-09T08:55:06.765Z,2
2023-02-09T08:57:54.473Z,1.5
2023-02-09T09:00:42.245Z,1.3
2023-02-09T09:03:30.872Z,1.3
2023-02-09T09:06:18.336Z,2.7
2023-02-09T09:09:06.702Z,3.4
2023-02-09T09:11:54.048Z,3
2023-02-09T09:14:41.879Z,2.7
2023-02-09T09:17:29.828Z,2.2
2023-02-09T09:20:17.618Z,2
2023-02-09T09:23:05.202Z,1.8
2023-02-09T09:25:52.730Z,2.7
2023-02-09T09:28:45.158Z,3.5
2023-02-09T09:31:35.461Z,3.3
2023-02-09T09:34:22.867Z,2.9
2023-02-09T09:37:10.228Z,2.6
2023-02-09T09:39:57.887Z,2.4
2023-02-09T09:42:45.548Z,2.4
2023-02-09T09:45:38.114Z,2.4
2023-02-09T09:48:26.044Z,2.4
2023-02-09T09:51:23.532Z,2.5
2023-02-09T09:54:21.577Z,3
2023-02-09T09:57:12.254Z,3.1
2023-02-09T10:00:05.435Z,3.1
2023-02-09T10:03:03.872Z,3.1
2023-02-09T10:05:59.298Z,3.1
2023-02-09T10:08:58.768Z,3.1
2023-02-09T10:11:49.113Z,3.1
2023-02-09T10:14:44.701Z,3.2
2023-02-09T10:17:32.458Z,3.2
2023-02-09T10:20:19.866Z,3.3
2023-02-09T10:23:27.466Z,3.4
2023-02-09T10:26:23.978Z,3.4
2023-02-09T10:29:13.141Z,3.4
2023-02-09T10:32:10.324Z,3.5
2023-02-09T10:35:01.950Z,3.5
2023-02-09T10:38:07.775Z,3.6
2023-02-09T10:41:02.268Z,3.7
2023-02-09T10:43:55.541Z,3.7
2023-02-09T10:46:43.605Z,3.8
2023-02-09T10:49:32.542Z,3.9
2023-02-09T10:52:23.052Z,4
2023-02-09T10:55:15.793Z,4.1
2023-02-09T10:58:07.323Z,4.2
2023-02-09T11:01:06.245Z,4.3
2023-02-09T11:04:03.144Z,4.4
2023-02-09T11:07:02.512Z,4.5
2023-02-09T11:09:56.243Z,4.6
2023-02-09T11:12:45.788Z,4.7
2023-02-09T11:15:33.244Z,4.8
2023-02-09T11:18:26.354Z,5
2023-02-09T11:21:19.150Z,5.1
2023-02-09T11:24:20.049Z,5.2
2023-02-09T11:27:19.477Z,5.4
2023-02-09T11:30:18.244Z,5.6
2023-02-09T11:33:28.249Z,5.7
2023-02-09T11:36:26.232Z,5.8
2023-02-09T11:39:26.326Z,5.8
2023-02-09T11:42:22.917Z,5.8
2023-02-09T11:45:31.380Z,5.9
2023-02-09T11:48:25.048Z,5.9
2023-02-09T11:51:15.926Z,5.9
2023-02-09T11:54:06.971Z,5.9
2023-02-09T11:57:01.174Z,5.8
2023-02-09T12:00:00.049Z,5.7
2023-02-09T12:02:52.480Z,5.8
2023-02-09T12:05:44.722Z,5.8
2023-02-09T12:08:33.578Z,5.8
2023-02-09T12:11:32.909Z,5.7
2023-02-09T12:14:29.912Z,5.7
2023-02-09T12:17:31.026Z,5.8
2023-02-09T12:20:26.842Z,5.8
2023-02-09T12:23:29.043Z,5.9
2023-02-09T12:26:17.709Z,5.9
2023-02-09T12:29:25.533Z,5.9
2023-02-09T12:32:23.677Z,5.8
2023-02-09T12:35:26.522Z,5.8
2023-02-09T12:38:23.978Z,5.9
2023-02-09T12:41:28.528Z,5.9
2023-02-09T12:45:10.524Z,5.9
2023-02-09T12:48:29.796Z,6
2023-02-09T12:51:17.124Z,5.9
2023-02-09T12:54:38.764Z,5.9
2023-02-09T12:57:31.295Z,5.9
2023-02-09T13:00:37.961Z,5.8
2023-02-09T13:03:39.089Z,5.8
2023-02-09T13:06:30.605Z,5.7
2023-02-09T13:09:25.788Z,5.7
2023-02-09T13:12:19.915Z,5.7
2023-02-09T13:15:17.970Z,5.8
2023-02-09T13:18:05.616Z,5.8
2023-02-09T13:21:04.774Z,5.8
2023-02-09T13:24:03.715Z,5.8
2023-02-09T13:26:55.647Z,5.7
2023-02-09T13:29:45.035Z,5.8
2023-02-09T13:32:35.142Z,5.8
2023-02-09T13:35:35.582Z,5.8
2023-02-09T13:38:31.840Z,5.9
2023-02-09T13:41:20.273Z,5.9
2023-02-09T13:44:15.445Z,5.9
2023-02-09T13:47:06.148Z,5.9
2023-02-09T13:49:59.920Z,6
2023-02-09T13:52:56.670Z,6
2023-02-09T13:55:53.778Z,6.1
2023-02-09T13:58:44.752Z,6.1
2023-02-09T14:01:33.807Z,6.1
2023-02-09T14:04:22.410Z,6.2
2023-02-09T14:07:15.305Z,6.4
2023-02-09T14:10:06.124Z,6.5
2023-02-09T14:13:01.357Z,6.5
2023-02-09T14:15:50.519Z,6.6
2023-02-09T14:18:58.179Z,6.7
2023-02-09T14:21:46.557Z,6.7
2023-02-09T14:24:34.035Z,6.7
2023-02-09T14:27:29.610Z,6.7
2023-02-09T14:30:19.386Z,6.7
2023-02-09T14:33:10.290Z,6.6
2023-02-09T14:36:09.239Z,6.6
2023-02-09T14:39:08.134Z,6.4
2023-02-09T14:41:58.365Z,6.4
2023-02-09T14:44:59.805Z,6.2
2023-02-09T14:48:12.750Z,6
2023-02-09T14:51:03.394Z,5.9
2023-02-09T14:53:58.755Z,5.7
2023-02-09T14:56:46.210Z,5.6
2023-02-09T14:59:34.053Z,5.4
2023-02-09T15:02:21.525Z,5.3
2023-02-09T15:05:11.668Z,5.1
2023-02-09T15:07:59.430Z,4.9
2023-02-09T15:10:53.256Z,4.7
2023-02-09T15:13:44.557Z,4.7
2023-02-09T15:16:33.082Z,4.5
2023-02-09T15:19:20.566Z,4.4
2023-02-09T15:22:08.273Z,4.3
2023-02-09T15:24:59.572Z,4.1
2023-02-09T15:27:51.258Z,4
2023-02-09T15:30:44.296Z,3.9
2023-02-09T15:33:32.600Z,3.9
2023-02-09T15:36:19.959Z,3.7
2023-02-09T15:39:08.674Z,3.6
2023-02-09T15:42:03.506Z,3.5
2023-02-09T15:45:30.541Z,3.4
2023-02-09T15:48:49.559Z,3.3
2023-02-09T15:51:36.819Z,3.2
2023-02-09T15:54:25.798Z,3.1
2023-02-09T15:57:17.738Z,3.1
2023-02-09T16:00:05.594Z,3
2023-02-09T16:03:01.595Z,2.9
2023-02-09T16:05:59.122Z,2.8
2023-02-09T16:08:51.503Z,2.7
2023-02-09T16:11:44.604Z,2.7
2023-02-09T16:14:32.979Z,2.6
2023-02-09T16:17:20.891Z,2.5
2023-02-09T16:20:08.452Z,2.4
2023-02-09T16:22:56.979Z,2.4
2023-02-09T16:25:45.806Z,2.3
2023-02-09T16:28:35.056Z,2.3
2023-02-09T16:31:22.440Z,2.2
2023-02-09T16:34:10.177Z,2.1
2023-02-09T16:36:59.941Z,2.1
2023-02-09T16:39:47.327Z,2
2023-02-09T16:42:34.646Z,2
2023-02-09T16:45:22.013Z,1.9
2023-02-09T16:48:12.202Z,1.9
2023-02-09T16:51:06.415Z,1.9
2023-02-09T16:53:58.126Z,1.8
2023-02-09T16:56:54.182Z,1.8
2023-02-09T16:59:41.991Z,1.8
2023-02-09T17:02:30.816Z,1.8
2023-02-09T17:05:22.040Z,1.7
2023-02-09T17:08:12.760Z,1.7
2023-02-09T17:11:03.405Z,1.7
2023-02-09T17:13:51.264Z,1.7
2023-02-09T17:16:39.263Z,1.7
2023-02-09T17:19:47.123Z,1.6
2023-02-09T17:22:36.728Z,1.6
2023-02-09T17:25:24.192Z,1.6
2023-02-09T17:28:11.844Z,1.6
2023-02-09T17:30:59.768Z,1.6
2023-02-09T17:33:54.222Z,1.6
2023-02-09T17:36:44.273Z,1.6
2023-02-09T17:39:32.632Z,1.5
2023-02-09T17:42:20.106Z,1.6
2023-02-09T17:45:08.179Z,1.5
2023-02-09T17:48:06.537Z,1.6
2023-02-09T17:50:56.856Z,1.6
2023-02-09T17:53:46.900Z,1.6
2023-02-09T17:56:34.623Z,1.6
2023-02-09T17:59:22.061Z,1.6
2023-02-09T18:02:09.508Z,1.6
2023-02-09T18:05:00.489Z,1.6
2023-02-09T18:07:47.980Z,1.6
2023-02-09T18:10:36.279Z,1.7
2023-02-09T18:13:23.751Z,1.7
2023-02-09T18:16:11.781Z,1.7
2023-02-09T18:18:59.222Z,1.7
2023-02-09T18:21:47.128Z,1.7
2023-02-09T18:24:36.673Z,1.7
2023-02-09T18:27:24.122Z,1.7
2023-02-09T18:30:11.534Z,1.7
2023-02-09T18:32:59.691Z,1.7
2023-02-09T18:35:48.590Z,1.7
2023-02-09T18:38:36.541Z,1.7
2023-02-09T18:41:23.849Z,1.7
2023-02-09T18:44:11.905Z,1.7
2023-02-09T18:46:59.213Z,1.7
2023-02-09T18:49:46.687Z,1.7
2023-02-09T18:52:33.942Z,1.7
2023-02-09T18:55:29.480Z,1.7
2023-02-09T18:58:19.588Z,1.7
2023-02-09T19:01:07.023Z,1.7
2023-02-09T19:03:55.638Z,1.7
2023-02-09T19:06:43.153Z,1.7
2023-02-09T19:09:31.656Z,1.7
2023-02-09T19:12:19.001Z,1.7
2023-02-09T19:15:06.354Z,1.8
2023-02-09T19:17:56.449Z,1.7
2023-02-09T19:20:44.805Z,1.8
2023-02-09T19:23:33.525Z,1.7
2023-02-09T19:26:20.940Z,1.8
2023-02-09T19:29:08.371Z,1.7
2023-02-09T19:31:55.753Z,1.8
2023-02-09T19:34:43.227Z,1.7
2023-02-09T19:37:31.615Z,1.7
2023-02-09T19:40:19.238Z,1.7
2023-02-09T19:43:14.471Z,1.7
2023-02-09T19:46:02.229Z,1.7
2023-02-09T19:48:50.274Z,1.7
2023-02-09T19:51:38.398Z,1.7
2023-02-09T19:54:25.733Z,1.7
2023-02-09T19:57:12.990Z,1.7
2023-02-09T20:00:00.487Z,1.6
2023-02-09T20:02:49.138Z,1.6
2023-02-09T20:05:36.758Z,1.6
2023-02-09T20:08:25.250Z,1.6
2023-02-09T20:11:12.638Z,1.6
2023-02-09T20:14:03.260Z,1.5
2023-02-09T20:16:50.648Z,1.5
2023-02-09T20:19:38.477Z,1.5
2023-02-09T20:22:25.746Z,1.5
2023-02-09T20:25:13.415Z,1.5
2023-02-09T20:28:01.393Z,1.5
2023-02-09T20:30:49.325Z,1.4
2023-02-09T20:33:36.839Z,1.4
2023-02-09T20:36:25.725Z,1.4
2023-02-09T20:39:13.310Z,1.4
2023-02-09T20:42:02.316Z,1.4
2023-02-09T20:45:21.579Z,1.4
2023-02-09T20:48:41.241Z,1.4
2023-02-09T20:51:28.864Z,1.3
2023-02-09T20:54:16.478Z,1.3
2023-02-09T20:57:03.849Z,1.3
2023-02-09T20:59:51.212Z,1.3
2023-02-09T21:02:38.737Z,1.3
2023-02-09T21:05:26.198Z,1.2
2023-02-09T21:08:13.780Z,1.2
2023-02-09T21:11:01.608Z,1.2
2023-02-09T21:13:49.464Z,1.1
2023-02-09T21:16:36.891Z,1.1
2023-02-09T21:19:24.639Z,1.1
2023-02-09T21:22:12.107Z,1.1
2023-02-09T21:24:59.915Z,1
2023-02-09T21:27:47.757Z,1
2023-02-09T21:30:35.381Z,0.9
2023-02-09T21:33:27.532Z,0.9
2023-02-09T21:36:14.929Z,0.9
2023-02-09T21:39:02.289Z,0.9
2023-02-09T21:41:49.623Z,0.8
2023-02-09T21:45:08.868Z,0.8
2023-02-09T21:47:57.716Z,0.8
2023-02-09T21:50:45.746Z,0.7
2023-02-09T21:53:33.230Z,0.7
2023-02-09T21:56:20.783Z,0.7
2023-02-09T21:59:08.103Z,0.6
2023-02-09T22:01:55.986Z,0.6
2023-02-09T22:04:43.447Z,0.6
2023-02-09T22:07:32.212Z,0.6
2023-02-09T22:10:20.103Z,0.5
2023-02-09T22:13:07.597Z,0.5
2023-02-09T22:15:54.905Z,0.5
2023-02-09T22:18:42.639Z,0.5
2023-02-09T22:21:30.917Z,0.4
2023-02-09T22:24:18.380Z,0.4
2023-02-09T22:27:05.874Z,0.4
2023-02-09T22:29:53.690Z,0.3
2023-02-09T22:32:41.090Z,0.3
2023-02-09T22:35:28.621Z,0.3
2023-02-09T22:38:15.973Z,0.3
2023-02-09T22:41:03.325Z,0.3
2023-02-09T22:43:51.946Z,0.2
2023-02-09T22:46:42.056Z,0.2
2023-02-09T22:49:31.505Z,0.2
2023-02-09T22:52:18.894Z,0.2
2023-02-09T22:55:06.222Z,0.2
2023-02-09T22:57:53.659Z,0.2
2023-02-09T23:00:41.065Z,0.2
2023-02-09T23:03:28.442Z,0.2
2023-02-09T23:06:16.156Z,0.1
2023-02-09T23:09:06.115Z,0.1
2023-02-09T23:11:54.068Z,0.1
2023-02-09T23:14:41.602Z,0.1
2023-02-09T23:17:29.121Z,0.1
2023-02-09T23:20:17.427Z,0
2023-02-09T23:23:05.990Z,0
2023-02-09T23:25:55.854Z,0
2023-02-09T23:28:43.213Z,0
2023-02-09T23:31:33.108Z,0
2023-02-09T23:34:21.284Z,-0.1
2023-02-09T23:37:18.376Z,-0.1
2023-02-09T23:40:10.994Z,-0.1
2023-02-09T23:42:58.460Z,-0.1
2023-02-09T23:45:46.358Z,-0.1
2023-02-09T23:48:33.748Z,-0.2
2023-02-09T23:51:21.135Z,-0.2
2023-02-09T23:54:11.223Z,-0.2
2023-02-09T23:56:58.633Z,-0.2
2023-02-09T23:59:46.489Z,-0.2
